sensor_id;sensor_type;location;lat;lon;timestamp;temperature;humidity
27797;DHT22;15177;50.844;4.412;2023-08-20T00:00:52;21.50;99.90
27797;DHT22;15177;50.844;4.412;2023-08-20T00:03:18;21.50;99.90
27797;DHT22;15177;50.844;4.412;2023-08-20T00:05:44;21.50;99.90
27797;DHT22;15177;50.844;4.412;2023-08-20T00:08:10;21.50;99.90
27797;DHT22;15177;50.844;4.412;2023-08-20T00:10:36;21.40;99.90
27797;DHT22;15177;50.844;4.412;2023-08-20T00:13:02;21.30;99.90
27797;DHT22;15177;50.844;4.412;2023-08-20T00:15:29;21.30;99.90
27797;DHT22;15177;50.844;4.412;2023-08-20T00:17:55;21.30;99.90
27797;DHT22;15177;50.844;4.412;2023-08-20T00:20:21;21.40;99.90
27797;DHT22;15177;50.844;4.412;2023-08-20T00:22:48;21.30;99.90
27797;DHT22;15177;50.844;4.412;2023-08-20T00:25:15;21.20;99.90
27797;DHT22;15177;50.844;4.412;2023-08-20T00:27:42;21.20;99.90
27797;DHT22;15177;50.844;4.412;2023-08-20T00:30:09;21.30;99.90
27797;DHT22;15177;50.844;4.412;2023-08-20T00:32:35;21.30;99.90
27797;DHT22;15177;50.844;4.412;2023-08-20T00:35:02;21.40;99.90
27797;DHT22;15177;50.844;4.412;2023-08-20T00:37:32;21.40;99.90
27797;DHT22;15177;50.844;4.412;2023-08-20T00:39:58;21.50;99.90
27797;DHT22;15177;50.844;4.412;2023-08-20T00:42:24;21.40;99.90
27797;DHT22;15177;50.844;4.412;2023-08-20T00:44:53;21.40;99.90
27797;DHT22;15177;50.844;4.412;2023-08-20T00:47:19;21.30;99.90
27797;DHT22;15177;50.844;4.412;2023-08-20T00:49:46;21.40;99.90
27797;DHT22;15177;50.844;4.412;2023-08-20T00:52:13;21.50;99.90
27797;DHT22;15177;50.844;4.412;2023-08-20T00:54:40;21.40;99.90
27797;DHT22;15177;50.844;4.412;2023-08-20T00:57:07;21.30;99.90
27797;DHT22;15177;50.844;4.412;2023-08-20T00:59:34;21.20;99.90
27797;DHT22;15177;50.844;4.412;2023-08-20T01:02:00;21.30;99.90
27797;DHT22;15177;50.844;4.412;2023-08-20T01:04:27;21.40;99.90
27797;DHT22;15177;50.844;4.412;2023-08-20T01:12:14;21.60;99.90
27797;DHT22;15177;50.844;4.412;2023-08-20T01:14:41;21.60;99.90
27797;DHT22;15177;50.844;4.412;2023-08-20T01:17:07;21.50;99.90
27797;DHT22;15177;50.844;4.412;2023-08-20T01:19:33;21.60;99.90
27797;DHT22;15177;50.844;4.412;2023-08-20T01:30:25;22.00;99.90
27797;DHT22;15177;50.844;4.412;2023-08-20T01:32:53;21.90;99.90
27797;DHT22;15177;50.844;4.412;2023-08-20T01:35:19;21.90;99.90
27797;DHT22;15177;50.844;4.412;2023-08-20T01:37:45;21.90;99.90
27797;DHT22;15177;50.844;4.412;2023-08-20T01:40:11;21.90;99.90
27797;DHT22;15177;50.844;4.412;2023-08-20T01:42:38;22.00;99.90
27797;DHT22;15177;50.844;4.412;2023-08-20T01:45:05;22.00;99.90
27797;DHT22;15177;50.844;4.412;2023-08-20T01:47:31;22.00;99.90
27797;DHT22;15177;50.844;4.412;2023-08-20T01:49:57;21.90;99.90
27797;DHT22;15177;50.844;4.412;2023-08-20T01:52:22;22.00;99.90
27797;DHT22;15177;50.844;4.412;2023-08-20T01:54:49;21.90;99.90
27797;DHT22;15177;50.844;4.412;2023-08-20T01:57:15;21.90;99.90
27797;DHT22;15177;50.844;4.412;2023-08-20T01:59:40;21.90;99.90
27797;DHT22;15177;50.844;4.412;2023-08-20T02:02:06;21.90;99.90
27797;DHT22;15177;50.844;4.412;2023-08-20T02:04:32;21.90;99.90
27797;DHT22;15177;50.844;4.412;2023-08-20T02:06:58;21.90;99.90
27797;DHT22;15177;50.844;4.412;2023-08-20T02:09:24;21.90;99.90
27797;DHT22;15177;50.844;4.412;2023-08-20T02:11:50;22.00;99.90
27797;DHT22;15177;50.844;4.412;2023-08-20T02:14:16;21.80;99.90
27797;DHT22;15177;50.844;4.412;2023-08-20T02:16:42;21.70;99.90
27797;DHT22;15177;50.844;4.412;2023-08-20T02:19:08;21.70;99.90
27797;DHT22;15177;50.844;4.412;2023-08-20T02:21:33;21.70;99.90
27797;DHT22;15177;50.844;4.412;2023-08-20T02:23:59;21.50;99.90
27797;DHT22;15177;50.844;4.412;2023-08-20T02:26:25;21.50;99.90
27797;DHT22;15177;50.844;4.412;2023-08-20T02:28:51;21.40;99.90
27797;DHT22;15177;50.844;4.412;2023-08-20T02:31:17;21.40;99.90
27797;DHT22;15177;50.844;4.412;2023-08-20T02:33:42;21.40;99.90
27797;DHT22;15177;50.844;4.412;2023-08-20T02:36:08;21.20;99.90
27797;DHT22;15177;50.844;4.412;2023-08-20T02:38:34;21.20;99.90
27797;DHT22;15177;50.844;4.412;2023-08-20T02:41:01;21.30;99.90
27797;DHT22;15177;50.844;4.412;2023-08-20T02:43:27;21.30;99.90
27797;DHT22;15177;50.844;4.412;2023-08-20T02:45:53;21.30;99.90
27797;DHT22;15177;50.844;4.412;2023-08-20T02:48:18;21.10;99.90
27797;DHT22;15177;50.844;4.412;2023-08-20T02:50:44;21.00;99.90
27797;DHT22;15177;50.844;4.412;2023-08-20T02:53:10;21.10;99.90
27797;DHT22;15177;50.844;4.412;2023-08-20T02:55:36;21.20;99.90
27797;DHT22;15177;50.844;4.412;2023-08-20T02:58:02;21.10;99.90
27797;DHT22;15177;50.844;4.412;2023-08-20T03:00:29;21.10;99.90
27797;DHT22;15177;50.844;4.412;2023-08-20T03:02:55;21.20;99.90
27797;DHT22;15177;50.844;4.412;2023-08-20T03:05:22;21.00;99.90
27797;DHT22;15177;50.844;4.412;2023-08-20T03:07:47;20.90;99.90
27797;DHT22;15177;50.844;4.412;2023-08-20T03:10:13;21.00;99.90
27797;DHT22;15177;50.844;4.412;2023-08-20T03:12:38;20.80;99.90
27797;DHT22;15177;50.844;4.412;2023-08-20T03:15:04;20.70;99.90
27797;DHT22;15177;50.844;4.412;2023-08-20T03:17:30;20.40;99.90
27797;DHT22;15177;50.844;4.412;2023-08-20T03:19:58;20.30;99.90
27797;DHT22;15177;50.844;4.412;2023-08-20T03:22:25;20.20;99.90
27797;DHT22;15177;50.844;4.412;2023-08-20T03:24:51;20.30;99.90
27797;DHT22;15177;50.844;4.412;2023-08-20T03:27:18;20.50;99.90
27797;DHT22;15177;50.844;4.412;2023-08-20T03:29:44;20.40;99.90
27797;DHT22;15177;50.844;4.412;2023-08-20T03:32:10;20.30;99.90
27797;DHT22;15177;50.844;4.412;2023-08-20T03:34:35;20.50;99.90
27797;DHT22;15177;50.844;4.412;2023-08-20T03:37:02;20.60;99.90
27797;DHT22;15177;50.844;4.412;2023-08-20T03:39:28;20.70;99.90
27797;DHT22;15177;50.844;4.412;2023-08-20T03:41:53;20.60;99.90
27797;DHT22;15177;50.844;4.412;2023-08-20T03:44:19;20.70;99.90
27797;DHT22;15177;50.844;4.412;2023-08-20T03:46:45;20.50;99.90
27797;DHT22;15177;50.844;4.412;2023-08-20T03:49:11;20.40;99.90
27797;DHT22;15177;50.844;4.412;2023-08-20T03:51:36;20.30;99.90
27797;DHT22;15177;50.844;4.412;2023-08-20T03:54:02;20.20;99.90
27797;DHT22;15177;50.844;4.412;2023-08-20T03:56:28;20.30;99.90
27797;DHT22;15177;50.844;4.412;2023-08-20T03:58:55;20.50;99.90
27797;DHT22;15177;50.844;4.412;2023-08-20T04:01:21;20.40;99.90
27797;DHT22;15177;50.844;4.412;2023-08-20T04:03:47;20.40;99.90
27797;DHT22;15177;50.844;4.412;2023-08-20T04:06:13;20.40;99.90
27797;DHT22;15177;50.844;4.412;2023-08-20T04:08:39;20.40;99.90
27797;DHT22;15177;50.844;4.412;2023-08-20T04:11:05;20.40;99.90
27797;DHT22;15177;50.844;4.412;2023-08-20T04:13:31;20.40;99.90
27797;DHT22;15177;50.844;4.412;2023-08-20T04:15:56;20.30;99.90
27797;DHT22;15177;50.844;4.412;2023-08-20T04:18:22;20.20;99.90
27797;DHT22;15177;50.844;4.412;2023-08-20T04:20:50;20.20;99.90
27797;DHT22;15177;50.844;4.412;2023-08-20T04:23:18;20.30;99.90
27797;DHT22;15177;50.844;4.412;2023-08-20T04:25:43;20.30;99.90
27797;DHT22;15177;50.844;4.412;2023-08-20T04:28:10;20.20;99.90
27797;DHT22;15177;50.844;4.412;2023-08-20T04:30:36;20.10;99.90
27797;DHT22;15177;50.844;4.412;2023-08-20T04:33:02;20.00;99.90
27797;DHT22;15177;50.844;4.412;2023-08-20T04:35:28;20.00;99.90
27797;DHT22;15177;50.844;4.412;2023-08-20T04:37:53;20.00;99.90
27797;DHT22;15177;50.844;4.412;2023-08-20T04:40:19;19.90;99.90
27797;DHT22;15177;50.844;4.412;2023-08-20T04:42:44;20.00;99.90
27797;DHT22;15177;50.844;4.412;2023-08-20T04:45:10;20.00;99.90
27797;DHT22;15177;50.844;4.412;2023-08-20T04:47:37;20.10;99.90
27797;DHT22;15177;50.844;4.412;2023-08-20T04:50:03;20.20;99.90
27797;DHT22;15177;50.844;4.412;2023-08-20T04:52:28;20.30;99.90
27797;DHT22;15177;50.844;4.412;2023-08-20T04:54:54;20.50;99.90
27797;DHT22;15177;50.844;4.412;2023-08-20T04:57:20;20.50;99.90
27797;DHT22;15177;50.844;4.412;2023-08-20T04:59:45;20.40;99.90
27797;DHT22;15177;50.844;4.412;2023-08-20T05:02:11;20.40;99.90
27797;DHT22;15177;50.844;4.412;2023-08-20T05:04:38;20.40;99.90
27797;DHT22;15177;50.844;4.412;2023-08-20T05:07:04;20.40;99.90
27797;DHT22;15177;50.844;4.412;2023-08-20T05:09:30;20.40;99.90
27797;DHT22;15177;50.844;4.412;2023-08-20T05:11:55;20.40;99.90
27797;DHT22;15177;50.844;4.412;2023-08-20T05:14:21;20.30;99.90
27797;DHT22;15177;50.844;4.412;2023-08-20T05:16:47;20.30;99.90
27797;DHT22;15177;50.844;4.412;2023-08-20T05:19:12;20.20;99.90
27797;DHT22;15177;50.844;4.412;2023-08-20T05:21:38;20.00;99.90
27797;DHT22;15177;50.844;4.412;2023-08-20T05:24:04;19.90;99.90
27797;DHT22;15177;50.844;4.412;2023-08-20T05:26:29;19.80;99.90
27797;DHT22;15177;50.844;4.412;2023-08-20T05:28:55;20.00;99.90
27797;DHT22;15177;50.844;4.412;2023-08-20T05:31:21;20.30;99.90
27797;DHT22;15177;50.844;4.412;2023-08-20T05:33:46;20.50;99.90
27797;DHT22;15177;50.844;4.412;2023-08-20T05:36:13;20.40;99.90
27797;DHT22;15177;50.844;4.412;2023-08-20T05:38:39;20.50;99.90
27797;DHT22;15177;50.844;4.412;2023-08-20T05:41:07;20.60;99.90
27797;DHT22;15177;50.844;4.412;2023-08-20T05:43:32;20.70;99.90
27797;DHT22;15177;50.844;4.412;2023-08-20T05:45:58;20.90;99.90
27797;DHT22;15177;50.844;4.412;2023-08-20T05:48:23;20.90;99.90
27797;DHT22;15177;50.844;4.412;2023-08-20T05:50:49;21.00;99.90
27797;DHT22;15177;50.844;4.412;2023-08-20T05:53:15;21.20;99.90
27797;DHT22;15177;50.844;4.412;2023-08-20T05:55:40;21.60;99.90
27797;DHT22;15177;50.844;4.412;2023-08-20T05:58:06;22.60;99.90
27797;DHT22;15177;50.844;4.412;2023-08-20T06:00:32;24.10;99.90
27797;DHT22;15177;50.844;4.412;2023-08-20T06:02:57;25.50;99.90
27797;DHT22;15177;50.844;4.412;2023-08-20T06:05:23;27.00;99.90
27797;DHT22;15177;50.844;4.412;2023-08-20T06:07:48;28.30;99.90
27797;DHT22;15177;50.844;4.412;2023-08-20T06:10:15;29.20;99.90
27797;DHT22;15177;50.844;4.412;2023-08-20T06:12:41;30.20;99.90
27797;DHT22;15177;50.844;4.412;2023-08-20T06:15:07;31.20;99.90
27797;DHT22;15177;50.844;4.412;2023-08-20T06:17:33;31.90;99.90
27797;DHT22;15177;50.844;4.412;2023-08-20T06:19:59;32.90;98.20
27797;DHT22;15177;50.844;4.412;2023-08-20T06:22:24;33.40;95.50
27797;DHT22;15177;50.844;4.412;2023-08-20T06:24:50;33.30;94.60
27797;DHT22;15177;50.844;4.412;2023-08-20T06:27:16;32.90;94.40
27797;DHT22;15177;50.844;4.412;2023-08-20T06:29:41;33.20;93.40
27797;DHT22;15177;50.844;4.412;2023-08-20T06:32:07;33.20;92.40
27797;DHT22;15177;50.844;4.412;2023-08-20T06:34:36;33.70;91.50
27797;DHT22;15177;50.844;4.412;2023-08-20T06:37:02;33.40;90.70
27797;DHT22;15177;50.844;4.412;2023-08-20T06:39:27;33.20;90.30
27797;DHT22;15177;50.844;4.412;2023-08-20T06:41:53;32.50;91.30
27797;DHT22;15177;50.844;4.412;2023-08-20T06:44:18;31.10;93.60
27797;DHT22;15177;50.844;4.412;2023-08-20T06:46:44;29.90;96.30
27797;DHT22;15177;50.844;4.412;2023-08-20T06:49:10;29.30;98.60
27797;DHT22;15177;50.844;4.412;2023-08-20T06:51:35;28.60;99.90
27797;DHT22;15177;50.844;4.412;2023-08-20T06:54:02;29.30;99.90
27797;DHT22;15177;50.844;4.412;2023-08-20T06:56:27;30.70;97.40
27797;DHT22;15177;50.844;4.412;2023-08-20T06:58:53;32.00;94.40
27797;DHT22;15177;50.844;4.412;2023-08-20T07:01:20;33.20;91.00
27797;DHT22;15177;50.844;4.412;2023-08-20T07:03:45;34.10;88.00
27797;DHT22;15177;50.844;4.412;2023-08-20T07:06:11;34.80;83.70
27797;DHT22;15177;50.844;4.412;2023-08-20T07:08:38;35.50;81.40
27797;DHT22;15177;50.844;4.412;2023-08-20T07:11:07;35.90;79.10
27797;DHT22;15177;50.844;4.412;2023-08-20T07:13:32;36.80;74.90
27797;DHT22;15177;50.844;4.412;2023-08-20T07:15:58;37.60;72.60
27797;DHT22;15177;50.844;4.412;2023-08-20T07:18:24;38.00;69.60
27797;DHT22;15177;50.844;4.412;2023-08-20T07:20:50;39.00;66.50
27797;DHT22;15177;50.844;4.412;2023-08-20T07:23:16;39.60;62.60
27797;DHT22;15177;50.844;4.412;2023-08-20T07:25:42;39.40;60.80
27797;DHT22;15177;50.844;4.412;2023-08-20T07:28:08;39.50;60.10
27797;DHT22;15177;50.844;4.412;2023-08-20T07:30:35;39.80;58.30
27797;DHT22;15177;50.844;4.412;2023-08-20T07:33:01;39.90;57.90
27797;DHT22;15177;50.844;4.412;2023-08-20T07:35:27;39.70;57.00
27797;DHT22;15177;50.844;4.412;2023-08-20T07:37:53;40.30;56.10
27797;DHT22;15177;50.844;4.412;2023-08-20T07:40:19;41.00;55.00
27797;DHT22;15177;50.844;4.412;2023-08-20T07:42:44;41.30;53.20
27797;DHT22;15177;50.844;4.412;2023-08-20T07:45:10;41.20;53.50
27797;DHT22;15177;50.844;4.412;2023-08-20T07:47:37;41.60;52.60
27797;DHT22;15177;50.844;4.412;2023-08-20T07:50:03;41.30;52.40
27797;DHT22;15177;50.844;4.412;2023-08-20T07:52:30;41.80;52.40
27797;DHT22;15177;50.844;4.412;2023-08-20T07:54:56;42.40;51.10
27797;DHT22;15177;50.844;4.412;2023-08-20T07:57:22;42.20;50.10
27797;DHT22;15177;50.844;4.412;2023-08-20T07:59:49;42.70;49.20
27797;DHT22;15177;50.844;4.412;2023-08-20T08:02:15;42.60;48.50
27797;DHT22;15177;50.844;4.412;2023-08-20T08:04:41;42.40;48.30
27797;DHT22;15177;50.844;4.412;2023-08-20T08:07:07;41.70;48.20
27797;DHT22;15177;50.844;4.412;2023-08-20T08:09:32;41.10;49.40
27797;DHT22;15177;50.844;4.412;2023-08-20T08:11:59;40.10;50.50
27797;DHT22;15177;50.844;4.412;2023-08-20T08:14:25;39.30;49.20
27797;DHT22;15177;50.844;4.412;2023-08-20T08:16:51;40.10;47.30
27797;DHT22;15177;50.844;4.412;2023-08-20T08:19:17;40.50;47.10
27797;DHT22;15177;50.844;4.412;2023-08-20T08:21:44;40.40;46.30
27797;DHT22;15177;50.844;4.412;2023-08-20T08:24:10;40.20;46.20
27797;DHT22;15177;50.844;4.412;2023-08-20T08:26:36;40.20;47.50
27797;DHT22;15177;50.844;4.412;2023-08-20T08:29:06;40.70;46.90
27797;DHT22;15177;50.844;4.412;2023-08-20T08:31:32;40.90;44.70
27797;DHT22;15177;50.844;4.412;2023-08-20T08:33:58;41.10;45.50
27797;DHT22;15177;50.844;4.412;2023-08-20T08:36:24;41.50;44.50
27797;DHT22;15177;50.844;4.412;2023-08-20T08:38:51;41.70;43.80
27797;DHT22;15177;50.844;4.412;2023-08-20T08:41:17;41.40;41.20
27797;DHT22;15177;50.844;4.412;2023-08-20T08:43:43;39.20;44.40
27797;DHT22;15177;50.844;4.412;2023-08-20T08:46:13;39.40;42.90
27797;DHT22;15177;50.844;4.412;2023-08-20T08:48:45;38.70;44.10
27797;DHT22;15177;50.844;4.412;2023-08-20T08:51:13;38.80;45.80
27797;DHT22;15177;50.844;4.412;2023-08-20T08:53:39;40.00;45.90
27797;DHT22;15177;50.844;4.412;2023-08-20T08:56:05;40.40;44.50
27797;DHT22;15177;50.844;4.412;2023-08-20T08:58:33;40.20;44.80
27797;DHT22;15177;50.844;4.412;2023-08-20T09:00:59;39.60;43.60
27797;DHT22;15177;50.844;4.412;2023-08-20T09:03:25;39.80;44.10
27797;DHT22;15177;50.844;4.412;2023-08-20T09:06:01;40.20;43.90
27797;DHT22;15177;50.844;4.412;2023-08-20T09:08:30;40.60;43.30
27797;DHT22;15177;50.844;4.412;2023-08-20T09:10:57;40.70;43.20
27797;DHT22;15177;50.844;4.412;2023-08-20T09:15:54;40.80;42.50
27797;DHT22;15177;50.844;4.412;2023-08-20T09:18:20;40.70;42.80
27797;DHT22;15177;50.844;4.412;2023-08-20T09:20:47;40.30;42.70
27797;DHT22;15177;50.844;4.412;2023-08-20T09:23:15;40.50;42.60
27797;DHT22;15177;50.844;4.412;2023-08-20T09:25:42;40.70;42.60
27797;DHT22;15177;50.844;4.412;2023-08-20T09:28:07;41.10;41.70
27797;DHT22;15177;50.844;4.412;2023-08-20T09:30:33;41.70;40.90
27797;DHT22;15177;50.844;4.412;2023-08-20T09:33:17;42.10;40.20
27797;DHT22;15177;50.844;4.412;2023-08-20T09:35:50;42.40;39.80
27797;DHT22;15177;50.844;4.412;2023-08-20T09:38:19;42.80;39.30
27797;DHT22;15177;50.844;4.412;2023-08-20T09:40:51;43.00;39.50
27797;DHT22;15177;50.844;4.412;2023-08-20T09:43:18;43.50;39.10
27797;DHT22;15177;50.844;4.412;2023-08-20T09:45:46;43.40;39.30
27797;DHT22;15177;50.844;4.412;2023-08-20T09:48:18;43.00;39.60
27797;DHT22;15177;50.844;4.412;2023-08-20T09:50:47;43.00;39.70
27797;DHT22;15177;50.844;4.412;2023-08-20T09:53:22;43.00;39.70
27797;DHT22;15177;50.844;4.412;2023-08-20T09:55:52;42.80;39.50
27797;DHT22;15177;50.844;4.412;2023-08-20T09:58:20;42.40;39.60
27797;DHT22;15177;50.844;4.412;2023-08-20T10:00:51;41.80;39.80
27797;DHT22;15177;50.844;4.412;2023-08-20T10:03:18;41.80;40.10
27797;DHT22;15177;50.844;4.412;2023-08-20T10:05:48;41.90;40.10
27797;DHT22;15177;50.844;4.412;2023-08-20T10:08:15;42.10;40.10
27797;DHT22;15177;50.844;4.412;2023-08-20T10:10:41;41.60;40.20
27797;DHT22;15177;50.844;4.412;2023-08-20T10:13:07;41.70;40.40
27797;DHT22;15177;50.844;4.412;2023-08-20T10:15:33;41.50;40.60
27797;DHT22;15177;50.844;4.412;2023-08-20T10:18:01;40.90;41.40
27797;DHT22;15177;50.844;4.412;2023-08-20T10:20:29;41.10;41.50
27797;DHT22;15177;50.844;4.412;2023-08-20T10:23:00;41.20;41.00
27797;DHT22;15177;50.844;4.412;2023-08-20T10:25:26;40.60;41.50
27797;DHT22;15177;50.844;4.412;2023-08-20T10:27:53;40.10;42.50
27797;DHT22;15177;50.844;4.412;2023-08-20T10:30:28;40.00;42.30
27797;DHT22;15177;50.844;4.412;2023-08-20T10:32:57;40.20;42.60
27797;DHT22;15177;50.844;4.412;2023-08-20T10:35:29;40.30;42.20
27797;DHT22;15177;50.844;4.412;2023-08-20T10:38:16;40.10;42.60
27797;DHT22;15177;50.844;4.412;2023-08-20T10:43:28;40.60;42.40
27797;DHT22;15177;50.844;4.412;2023-08-20T10:46:08;41.20;42.30
27797;DHT22;15177;50.844;4.412;2023-08-20T10:48:39;39.00;45.20
27797;DHT22;15177;50.844;4.412;2023-08-20T10:53:33;39.90;43.80
27797;DHT22;15177;50.844;4.412;2023-08-20T10:56:14;38.40;45.00
27797;DHT22;15177;50.844;4.412;2023-08-20T10:58:47;38.30;45.80
27797;DHT22;15177;50.844;4.412;2023-08-20T11:01:22;39.30;44.70
27797;DHT22;15177;50.844;4.412;2023-08-20T11:03:51;39.90;43.90
27797;DHT22;15177;50.844;4.412;2023-08-20T11:06:17;40.10;43.70
27797;DHT22;15177;50.844;4.412;2023-08-20T11:08:44;40.30;43.40
27797;DHT22;15177;50.844;4.412;2023-08-20T11:11:10;40.40;43.70
27797;DHT22;15177;50.844;4.412;2023-08-20T11:13:37;40.60;43.30
27797;DHT22;15177;50.844;4.412;2023-08-20T11:16:03;40.40;43.40
27797;DHT22;15177;50.844;4.412;2023-08-20T11:18:31;39.70;43.90
27797;DHT22;15177;50.844;4.412;2023-08-20T11:20:57;39.20;44.80
27797;DHT22;15177;50.844;4.412;2023-08-20T11:23:23;38.80;44.70
27797;DHT22;15177;50.844;4.412;2023-08-20T11:25:50;38.30;45.40
27797;DHT22;15177;50.844;4.412;2023-08-20T11:28:16;35.30;49.80
27797;DHT22;15177;50.844;4.412;2023-08-20T11:30:42;35.40;50.60
27797;DHT22;15177;50.844;4.412;2023-08-20T11:33:08;35.50;50.60
27797;DHT22;15177;50.844;4.412;2023-08-20T11:35:35;35.50;51.10
27797;DHT22;15177;50.844;4.412;2023-08-20T11:38:00;35.20;50.80
27797;DHT22;15177;50.844;4.412;2023-08-20T11:40:28;34.30;51.80
27797;DHT22;15177;50.844;4.412;2023-08-20T11:42:54;33.30;53.80
27797;DHT22;15177;50.844;4.412;2023-08-20T11:45:19;32.70;55.20
27797;DHT22;15177;50.844;4.412;2023-08-20T11:47:45;32.10;56.70
27797;DHT22;15177;50.844;4.412;2023-08-20T11:50:10;31.10;58.70
27797;DHT22;15177;50.844;4.412;2023-08-20T11:52:37;30.50;60.30
27797;DHT22;15177;50.844;4.412;2023-08-20T11:55:05;30.00;61.70
27797;DHT22;15177;50.844;4.412;2023-08-20T11:57:31;29.70;63.00
27797;DHT22;15177;50.844;4.412;2023-08-20T12:00:02;30.00;63.10
27797;DHT22;15177;50.844;4.412;2023-08-20T12:02:40;30.60;62.40
27797;DHT22;15177;50.844;4.412;2023-08-20T12:05:07;31.00;61.00
27797;DHT22;15177;50.844;4.412;2023-08-20T12:07:32;30.90;60.80
27797;DHT22;15177;50.844;4.412;2023-08-20T12:10:19;31.20;60.50
27797;DHT22;15177;50.844;4.412;2023-08-20T12:12:45;30.90;61.00
27797;DHT22;15177;50.844;4.412;2023-08-20T12:15:11;30.40;61.90
27797;DHT22;15177;50.844;4.412;2023-08-20T12:17:38;30.30;63.10
27797;DHT22;15177;50.844;4.412;2023-08-20T12:20:04;30.60;62.90
27797;DHT22;15177;50.844;4.412;2023-08-20T12:22:39;30.80;62.60
27797;DHT22;15177;50.844;4.412;2023-08-20T12:25:06;31.00;63.30
27797;DHT22;15177;50.844;4.412;2023-08-20T12:27:33;31.10;63.30
27797;DHT22;15177;50.844;4.412;2023-08-20T12:29:59;30.50;64.90
27797;DHT22;15177;50.844;4.412;2023-08-20T12:32:24;30.20;66.50
27797;DHT22;15177;50.844;4.412;2023-08-20T12:34:50;30.40;67.30
27797;DHT22;15177;50.844;4.412;2023-08-20T12:37:16;30.50;66.50
27797;DHT22;15177;50.844;4.412;2023-08-20T12:39:41;30.50;65.80
27797;DHT22;15177;50.844;4.412;2023-08-20T12:42:07;30.80;65.00
27797;DHT22;15177;50.844;4.412;2023-08-20T12:44:33;31.10;64.90
27797;DHT22;15177;50.844;4.412;2023-08-20T12:46:59;31.30;65.00
27797;DHT22;15177;50.844;4.412;2023-08-20T12:49:24;31.40;64.90
27797;DHT22;15177;50.844;4.412;2023-08-20T12:51:50;31.60;64.00
27797;DHT22;15177;50.844;4.412;2023-08-20T12:54:15;31.10;66.30
27797;DHT22;15177;50.844;4.412;2023-08-20T12:56:42;30.20;69.40
27797;DHT22;15177;50.844;4.412;2023-08-20T12:59:07;30.30;69.80
27797;DHT22;15177;50.844;4.412;2023-08-20T13:01:33;30.50;69.80
27797;DHT22;15177;50.844;4.412;2023-08-20T13:03:59;30.90;68.00
27797;DHT22;15177;50.844;4.412;2023-08-20T13:06:25;30.60;68.20
27797;DHT22;15177;50.844;4.412;2023-08-20T13:08:51;30.60;70.00
27797;DHT22;15177;50.844;4.412;2023-08-20T13:11:18;30.90;68.20
27797;DHT22;15177;50.844;4.412;2023-08-20T13:13:45;31.40;66.50
27797;DHT22;15177;50.844;4.412;2023-08-20T13:16:11;31.70;64.80
27797;DHT22;15177;50.844;4.412;2023-08-20T13:18:37;31.80;64.50
27797;DHT22;15177;50.844;4.412;2023-08-20T13:21:02;31.90;64.10
27797;DHT22;15177;50.844;4.412;2023-08-20T13:23:29;32.00;63.60
27797;DHT22;15177;50.844;4.412;2023-08-20T13:25:55;32.10;62.90
27797;DHT22;15177;50.844;4.412;2023-08-20T13:28:21;32.20;63.20
27797;DHT22;15177;50.844;4.412;2023-08-20T13:30:46;32.20;63.00
27797;DHT22;15177;50.844;4.412;2023-08-20T13:33:15;31.30;66.20
27797;DHT22;15177;50.844;4.412;2023-08-20T13:35:41;31.50;66.60
27797;DHT22;15177;50.844;4.412;2023-08-20T13:38:07;32.00;65.40
27797;DHT22;15177;50.844;4.412;2023-08-20T13:40:33;32.20;65.30
27797;DHT22;15177;50.844;4.412;2023-08-20T13:42:59;32.30;64.60
27797;DHT22;15177;50.844;4.412;2023-08-20T13:45:24;32.40;64.60
27797;DHT22;15177;50.844;4.412;2023-08-20T13:47:50;32.20;64.20
27797;DHT22;15177;50.844;4.412;2023-08-20T13:50:16;31.80;65.40
27797;DHT22;15177;50.844;4.412;2023-08-20T13:52:41;31.70;66.00
27797;DHT22;15177;50.844;4.412;2023-08-20T13:55:07;31.60;64.80
27797;DHT22;15177;50.844;4.412;2023-08-20T13:57:33;31.60;64.40
27797;DHT22;15177;50.844;4.412;2023-08-20T13:59:59;31.40;64.90
27797;DHT22;15177;50.844;4.412;2023-08-20T14:02:24;31.40;66.50
27797;DHT22;15177;50.844;4.412;2023-08-20T14:04:50;31.40;66.90
27797;DHT22;15177;50.844;4.412;2023-08-20T14:07:18;31.50;66.00
27797;DHT22;15177;50.844;4.412;2023-08-20T14:09:43;31.40;67.00
27797;DHT22;15177;50.844;4.412;2023-08-20T14:12:09;31.40;66.40
27797;DHT22;15177;50.844;4.412;2023-08-20T14:14:35;31.40;66.00
27797;DHT22;15177;50.844;4.412;2023-08-20T14:17:00;31.30;65.50
27797;DHT22;15177;50.844;4.412;2023-08-20T14:19:26;31.30;65.40
27797;DHT22;15177;50.844;4.412;2023-08-20T14:21:51;31.20;65.60
27797;DHT22;15177;50.844;4.412;2023-08-20T14:24:17;31.10;66.20
27797;DHT22;15177;50.844;4.412;2023-08-20T14:26:43;31.10;67.20
27797;DHT22;15177;50.844;4.412;2023-08-20T14:29:09;31.10;67.60
27797;DHT22;15177;50.844;4.412;2023-08-20T14:31:34;31.30;67.20
27797;DHT22;15177;50.844;4.412;2023-08-20T14:34:00;31.30;67.10
27797;DHT22;15177;50.844;4.412;2023-08-20T14:36:26;31.20;68.80
27797;DHT22;15177;50.844;4.412;2023-08-20T14:38:52;31.00;69.70
27797;DHT22;15177;50.844;4.412;2023-08-20T14:41:17;30.80;69.90
27797;DHT22;15177;50.844;4.412;2023-08-20T14:43:43;30.50;71.70
27797;DHT22;15177;50.844;4.412;2023-08-20T14:46:08;30.40;71.30
27797;DHT22;15177;50.844;4.412;2023-08-20T14:48:34;30.40;71.70
27797;DHT22;15177;50.844;4.412;2023-08-20T14:51:00;30.50;71.30
27797;DHT22;15177;50.844;4.412;2023-08-20T14:53:26;30.50;72.10
27797;DHT22;15177;50.844;4.412;2023-08-20T14:55:52;30.60;72.20
27797;DHT22;15177;50.844;4.412;2023-08-20T14:58:17;30.70;71.20
27797;DHT22;15177;50.844;4.412;2023-08-20T15:00:43;30.70;71.40
27797;DHT22;15177;50.844;4.412;2023-08-20T15:03:08;30.60;72.10
27797;DHT22;15177;50.844;4.412;2023-08-20T15:05:34;30.70;71.80
27797;DHT22;15177;50.844;4.412;2023-08-20T15:08:00;30.50;72.20
27797;DHT22;15177;50.844;4.412;2023-08-20T15:10:26;30.40;72.50
27797;DHT22;15177;50.844;4.412;2023-08-20T15:12:51;30.30;72.80
27797;DHT22;15177;50.844;4.412;2023-08-20T15:15:17;30.10;73.70
27797;DHT22;15177;50.844;4.412;2023-08-20T15:17:43;30.00;73.80
27797;DHT22;15177;50.844;4.412;2023-08-20T15:20:09;30.00;75.00
27797;DHT22;15177;50.844;4.412;2023-08-20T15:22:36;30.00;75.20
27797;DHT22;15177;50.844;4.412;2023-08-20T15:25:02;29.90;75.60
27797;DHT22;15177;50.844;4.412;2023-08-20T15:27:29;29.90;75.90
27797;DHT22;15177;50.844;4.412;2023-08-20T15:29:55;29.90;75.40
27797;DHT22;15177;50.844;4.412;2023-08-20T15:32:20;29.80;75.80
27797;DHT22;15177;50.844;4.412;2023-08-20T15:34:46;29.80;76.00
27797;DHT22;15177;50.844;4.412;2023-08-20T15:37:12;29.90;76.00
27797;DHT22;15177;50.844;4.412;2023-08-20T15:39:39;30.00;76.00
27797;DHT22;15177;50.844;4.412;2023-08-20T15:42:05;30.10;75.80
27797;DHT22;15177;50.844;4.412;2023-08-20T15:44:30;30.20;74.60
27797;DHT22;15177;50.844;4.412;2023-08-20T15:46:56;30.30;74.30